createdAt,value
2023-01-13T00:04:12.547Z,6.90
2023-01-13T00:09:14.714Z,5.30
2023-01-13T00:14:18.180Z,5.40
2023-01-13T00:19:20.431Z,5.63
2023-01-13T00:24:22.759Z,5.65
2023-01-13T00:29:24.966Z,5.68
2023-01-13T00:34:27.212Z,5.72
2023-01-13T00:39:29.513Z,5.57
2023-01-13T00:44:31.671Z,5.88
2023-01-13T00:49:33.879Z,6.10
2023-01-13T00:54:36.081Z,6.03
2023-01-13T00:59:38.321Z,6.00
2023-01-13T01:04:40.574Z,5.93
2023-01-13T01:09:42.767Z,5.40
2023-01-13T01:14:45.071Z,5.90
2023-01-13T01:19:47.228Z,6.00
2023-01-13T01:24:49.408Z,6.10
2023-01-13T01:29:51.809Z,6.80
2023-01-13T01:34:53.977Z,6.68
2023-01-13T01:39:56.189Z,5.75
2023-01-13T01:45:03.744Z,5.55
2023-01-13T01:50:06.518Z,6.35
2023-01-13T01:55:15.359Z,6.35
2023-01-13T02:00:17.800Z,6.78
2023-01-13T02:05:20.470Z,6.20
2023-01-13T02:10:26.154Z,6.10
2023-01-13T02:15:44.248Z,6.43
2023-01-13T02:31:43.477Z,6.32
2023-01-13T02:47:24.647Z,6.13
2023-01-13T02:52:37.926Z,6.60
2023-01-13T02:57:41.611Z,6.72
2023-01-13T03:02:43.839Z,6.20
2023-01-13T03:23:52.137Z,5.55
2023-01-13T03:29:05.304Z,5.47
2023-01-13T03:34:13.299Z,5.43
2023-01-13T03:39:22.771Z,5.88
2023-01-13T03:49:59.518Z,5.60
2023-01-13T04:00:21.812Z,5.60
2023-01-13T04:05:25.155Z,5.60
2023-01-13T04:10:34.829Z,5.90
2023-01-13T04:15:41.175Z,6.72
2023-01-13T04:20:46.038Z,5.80
2023-01-13T04:25:48.746Z,5.88
2023-01-13T04:30:52.211Z,6.72
2023-01-13T04:35:55.312Z,6.10
2023-01-13T04:40:57.580Z,5.88
2023-01-13T04:45:59.829Z,6.30
2023-01-13T04:51:02.058Z,6.28
2023-01-13T04:56:04.388Z,6.32
2023-01-13T05:01:06.671Z,6.38
2023-01-13T05:06:08.962Z,6.63
2023-01-13T05:11:31.075Z,6.07
2023-01-13T05:16:53.445Z,6.80
2023-01-13T05:22:15.927Z,6.53
2023-01-13T05:27:18.217Z,7.05
2023-01-13T05:32:21.697Z,7.90
2023-01-13T05:37:25.789Z,6.47
2023-01-13T05:42:48.264Z,7.07
2023-01-13T05:47:50.800Z,8.48
2023-01-13T05:52:53.084Z,7.22
2023-01-13T05:57:55.364Z,7.07
2023-01-13T06:02:57.630Z,7.68
2023-01-13T06:08:01.286Z,7.13
2023-01-13T06:13:04.727Z,7.55
2023-01-13T06:18:06.986Z,7.38
2023-01-13T06:23:11.503Z,7.50
2023-01-13T06:28:13.827Z,7.60
2023-01-13T06:33:20.704Z,9.18
2023-01-13T06:38:27.240Z,8.85
2023-01-13T06:43:29.562Z,9.88
2023-01-13T06:48:35.481Z,8.60
2023-01-13T06:53:37.920Z,8.70
2023-01-13T06:58:40.160Z,8.60
2023-01-13T07:03:42.415Z,8.70
2023-01-13T07:08:44.639Z,8.65
2023-01-13T07:14:06.813Z,10.13
2023-01-13T07:19:09.118Z,9.70
2023-01-13T07:24:11.369Z,9.82
2023-01-13T07:29:13.755Z,8.85
2023-01-13T07:34:16.107Z,8.93
2023-01-13T07:39:18.429Z,9.40
2023-01-13T07:44:20.717Z,9.63
2023-01-13T07:49:23.124Z,9.90
2023-01-13T07:54:39.578Z,13.73
2023-01-13T07:59:42.999Z,11.68
2023-01-13T08:04:45.254Z,13.20
2023-01-13T08:09:47.553Z,10.27
2023-01-13T08:14:50.956Z,9.52
2023-01-13T08:19:53.273Z,10.27
2023-01-13T08:24:55.518Z,9.15
2023-01-13T08:29:57.747Z,9.60
2023-01-13T08:34:59.959Z,9.82
2023-01-13T08:40:02.315Z,9.00
2023-01-13T08:45:06.259Z,9.35
2023-01-13T08:50:09.372Z,10.88
2023-01-13T08:55:12.139Z,11.40
2023-01-13T09:00:15.220Z,10.07
2023-01-13T15:42:18.010Z,21.88
2023-01-13T15:47:23.032Z,22.17
2023-01-13T15:52:27.597Z,20.65
2023-01-13T15:57:33.067Z,19.98
2023-01-13T16:02:35.358Z,18.10
2023-01-13T16:07:37.836Z,17.20
2023-01-13T16:12:40.071Z,17.17
2023-01-13T16:17:44.349Z,16.77
2023-01-13T16:22:46.604Z,22.05
2023-01-13T16:27:48.885Z,19.33
2023-01-13T16:32:51.392Z,19.52
2023-01-13T16:37:55.067Z,20.60
2023-01-13T16:42:57.949Z,18.67
2023-01-13T16:48:00.348Z,17.90
2023-01-13T16:53:04.444Z,18.90
2023-01-13T16:58:12.359Z,19.05
2023-01-13T17:03:15.531Z,19.30
2023-01-13T17:08:18.306Z,19.35
2023-01-13T17:13:21.032Z,20.02
2023-01-13T17:18:23.322Z,18.67
2023-01-13T17:23:25.579Z,17.58
2023-01-13T17:28:27.856Z,18.58
2023-01-13T17:33:37.144Z,21.27
2023-01-13T17:38:39.400Z,25.00
2023-01-13T17:43:41.704Z,20.25
2023-01-13T17:48:44.268Z,16.77
2023-01-13T17:53:46.916Z,15.73
2023-01-13T17:58:49.209Z,16.90
2023-01-13T18:03:51.579Z,16.50
2023-01-13T18:08:54.069Z,16.50
2023-01-13T18:13:57.712Z,15.95
2023-01-13T18:19:20.727Z,14.45
2023-01-13T18:24:42.792Z,13.75
2023-01-13T18:29:46.701Z,16.25
2023-01-13T18:34:50.459Z,23.55
2023-01-13T18:39:56.131Z,17.88
2023-01-13T18:44:58.543Z,16.52
2023-01-13T18:50:00.868Z,17.77
2023-01-13T18:55:03.885Z,17.73
2023-01-13T19:00:13.047Z,18.55
2023-01-13T19:05:15.475Z,17.80
2023-01-13T19:10:18.301Z,19.50
2023-01-13T19:15:20.547Z,20.65
2023-01-13T19:20:22.767Z,20.75
2023-01-13T19:25:25.117Z,21.55
2023-01-13T19:30:27.362Z,22.85
2023-01-13T19:35:29.564Z,25.45
2023-01-13T19:40:31.761Z,25.17
2023-01-13T19:45:35.496Z,23.38
2023-01-13T19:50:39.973Z,29.17
2023-01-13T19:55:48.501Z,23.02
2023-01-13T20:00:51.606Z,19.92
2023-01-13T20:05:54.434Z,18.70
2023-01-13T20:11:16.570Z,18.20
2023-01-13T20:16:18.884Z,18.02
2023-01-13T20:21:21.245Z,18.08
2023-01-13T20:26:23.478Z,18.17
2023-01-13T20:31:25.805Z,17.67
2023-01-13T20:36:33.563Z,18.50
2023-01-13T20:41:55.645Z,19.02
2023-01-13T20:46:59.169Z,20.65
2023-01-13T20:52:01.573Z,19.55
2023-01-13T20:57:05.693Z,20.60
2023-01-13T21:02:13.317Z,20.50
2023-01-13T21:07:15.619Z,31.08
2023-01-13T21:12:37.775Z,20.20
2023-01-13T21:17:59.908Z,20.02
2023-01-13T21:23:03.743Z,19.63
2023-01-13T21:28:06.796Z,18.55
2023-01-13T21:33:13.365Z,17.88
2023-01-13T21:38:15.552Z,18.30
2023-01-13T21:43:37.609Z,18.30
2023-01-13T21:48:39.850Z,19.70
2023-01-13T21:53:42.115Z,18.95
2023-01-13T21:58:44.390Z,19.55
2023-01-13T22:04:06.482Z,16.60
2023-01-13T22:09:08.733Z,17.35
2023-01-13T22:14:11.087Z,19.77
2023-01-13T22:19:13.271Z,19.70
2023-01-13T22:24:15.564Z,17.33
2023-01-13T22:29:17.996Z,18.25
2023-01-13T22:34:20.347Z,17.85
2023-01-13T22:39:22.578Z,16.80
2023-01-13T22:44:25.205Z,16.70
2023-01-13T22:49:27.482Z,15.80
2023-01-13T22:54:30.435Z,14.52
2023-01-13T22:59:32.705Z,15.38
2023-01-13T23:04:35.166Z,15.45
2023-01-13T23:09:37.349Z,12.50
2023-01-13T23:14:39.580Z,12.27
2023-01-13T23:19:41.883Z,12.18
2023-01-13T23:24:44.103Z,13.30
2023-01-13T23:29:46.332Z,12.25
2023-01-13T23:34:48.647Z,13.32
2023-01-13T23:39:50.896Z,13.95
2023-01-13T23:44:53.081Z,13.65
2023-01-13T23:49:55.286Z,12.80
2023-01-13T23:54:59.277Z,13.38
